createdAt,value
2018-07-03T00:01:55.815Z,1.10
2018-07-03T00:04:24.174Z,0.90
2018-07-03T00:06:53.423Z,1.00
2018-07-03T00:09:21.525Z,1.00
2018-07-03T00:11:49.718Z,0.93
2018-07-03T00:14:17.927Z,1.03
2018-07-03T00:16:51.962Z,1.10
2018-07-03T00:19:20.154Z,1.07
2018-07-03T00:21:49.098Z,1.10
2018-07-03T00:24:17.970Z,1.23
2018-07-03T00:26:46.153Z,1.30
2018-07-03T00:29:14.952Z,1.30
2018-07-03T00:31:43.208Z,1.10
2018-07-03T00:34:12.024Z,1.20
2018-07-03T00:36:40.798Z,1.00
2018-07-03T00:39:09.468Z,1.53
2018-07-03T00:41:37.588Z,1.00
2018-07-03T00:44:05.930Z,0.90
2018-07-03T00:46:34.231Z,1.00
2018-07-03T00:49:02.412Z,1.10
2018-07-03T00:51:30.544Z,0.90
2018-07-03T00:53:58.733Z,1.07
2018-07-03T00:56:28.186Z,1.03
2018-07-03T00:58:56.379Z,0.93
2018-07-03T01:01:25.488Z,1.10
2018-07-03T01:03:53.629Z,1.00
2018-07-03T01:06:21.741Z,1.20
2018-07-03T01:08:50.629Z,1.10
2018-07-03T01:11:19.287Z,1.10
2018-07-03T01:13:47.472Z,0.97
2018-07-03T01:16:15.610Z,1.20
2018-07-03T01:18:43.741Z,1.00
2018-07-03T01:21:12.009Z,1.20
2018-07-03T01:23:40.123Z,1.20
2018-07-03T01:26:09.052Z,1.00
2018-07-03T01:28:37.190Z,1.20
2018-07-03T01:31:05.314Z,1.00
2018-07-03T01:33:33.747Z,1.43
2018-07-03T01:36:01.915Z,1.20
2018-07-03T01:38:30.949Z,0.90
2018-07-03T01:40:59.137Z,1.17
2018-07-03T01:43:27.334Z,1.10
2018-07-03T01:45:55.500Z,1.07
2018-07-03T01:48:23.640Z,0.97
2018-07-03T01:50:51.822Z,1.10
2018-07-03T01:53:20.052Z,1.43
2018-07-03T01:55:48.378Z,1.10
2018-07-03T01:58:16.541Z,1.47
2018-07-03T02:00:44.681Z,1.50
2018-07-03T02:03:12.855Z,1.00
2018-07-03T02:05:40.962Z,1.17
2018-07-03T02:08:09.100Z,1.20
2018-07-03T02:10:37.921Z,1.03
2018-07-03T02:13:06.118Z,1.00
2018-07-03T02:15:34.286Z,1.20
2018-07-03T02:18:02.471Z,1.67
2018-07-03T02:20:30.641Z,1.20
2018-07-03T02:22:58.789Z,1.03
2018-07-03T02:25:27.213Z,1.23
2018-07-03T02:27:55.436Z,1.10
2018-07-03T02:30:23.741Z,1.23
2018-07-03T02:32:52.875Z,1.17
2018-07-03T02:35:21.206Z,1.20
2018-07-03T02:37:50.174Z,1.40
2018-07-03T02:40:18.904Z,1.00
2018-07-03T02:42:47.040Z,1.33
2018-07-03T02:45:15.792Z,1.00
2018-07-03T02:47:44.431Z,0.90
2018-07-03T02:50:12.627Z,1.50
2018-07-03T02:52:40.812Z,1.47
2018-07-03T02:55:08.973Z,0.90
2018-07-03T02:57:37.182Z,1.10
2018-07-03T03:00:05.548Z,1.20
2018-07-03T03:02:33.679Z,1.67
2018-07-03T03:05:01.860Z,1.13
2018-07-03T03:07:30.026Z,1.20
2018-07-03T03:09:58.206Z,1.30
2018-07-03T03:12:26.583Z,1.27
2018-07-03T03:14:54.752Z,1.27
2018-07-03T03:17:22.937Z,1.30
2018-07-03T03:19:51.286Z,1.20
2018-07-03T03:22:19.422Z,1.30
2018-07-03T03:24:47.679Z,1.47
2018-07-03T03:27:15.816Z,1.47
2018-07-03T03:29:44.863Z,1.47
2018-07-03T03:32:13.198Z,1.17
2018-07-03T03:34:42.076Z,1.40
2018-07-03T03:37:10.248Z,1.43
2018-07-03T03:39:39.057Z,1.87
2018-07-03T03:42:07.297Z,1.70
2018-07-03T03:44:35.430Z,1.50
2018-07-03T03:47:03.691Z,1.50
2018-07-03T03:49:32.611Z,1.90
2018-07-03T03:52:00.717Z,1.70
2018-07-03T03:54:28.954Z,1.70
2018-07-03T03:56:57.101Z,1.40
2018-07-03T03:59:25.376Z,2.20
2018-07-03T04:01:53.507Z,2.07
2018-07-03T04:04:21.717Z,1.97
2018-07-03T04:06:49.928Z,1.70
2018-07-03T04:09:18.307Z,1.90
2018-07-03T04:11:46.477Z,1.80
2018-07-03T04:14:14.617Z,1.90
2018-07-03T04:16:43.326Z,1.67
2018-07-03T04:19:11.546Z,2.03
2018-07-03T04:21:39.724Z,1.73
2018-07-03T04:24:07.963Z,1.33
2018-07-03T04:26:36.085Z,1.80
2018-07-03T04:29:04.331Z,1.70
2018-07-03T04:31:32.436Z,1.70
2018-07-03T04:34:00.774Z,2.10
2018-07-03T04:36:28.928Z,1.83
2018-07-03T04:38:57.117Z,2.00
2018-07-03T04:41:25.325Z,1.57
2018-07-03T04:43:54.158Z,1.70
2018-07-03T04:46:22.388Z,1.92
2018-07-03T04:48:50.586Z,1.70
2018-07-03T04:51:19.442Z,1.60
2018-07-03T04:53:47.720Z,1.60
2018-07-03T04:56:16.005Z,1.70
2018-07-03T04:58:44.155Z,2.00
2018-07-03T05:01:12.416Z,1.60
2018-07-03T05:03:40.637Z,1.67
2018-07-03T05:06:08.760Z,1.60
2018-07-03T05:08:36.898Z,1.82
2018-07-03T05:11:05.268Z,2.00
2018-07-03T05:13:34.083Z,1.80
2018-07-03T05:16:02.747Z,1.90
2018-07-03T05:18:30.892Z,1.92
2018-07-03T05:20:59.017Z,1.92
2018-07-03T05:23:29.110Z,1.98
2018-07-03T05:25:58.057Z,1.90
2018-07-03T05:28:26.265Z,1.82
2018-07-03T05:30:55.161Z,1.75
2018-07-03T05:33:23.354Z,1.77
2018-07-03T05:35:51.506Z,2.27
2018-07-03T05:38:19.742Z,1.70
2018-07-03T05:40:48.574Z,2.00
2018-07-03T05:43:16.781Z,2.10
2018-07-03T05:45:45.033Z,1.95
2018-07-03T05:48:13.548Z,1.90
2018-07-03T05:50:41.728Z,2.02
2018-07-03T05:53:09.979Z,1.87
2018-07-03T05:55:38.188Z,2.30
2018-07-03T05:58:06.356Z,1.98
2018-07-03T06:00:34.521Z,1.90
2018-07-03T06:03:03.400Z,1.82
2018-07-03T06:05:31.703Z,2.08
2018-07-03T06:08:01.481Z,2.20
2018-07-03T06:10:29.629Z,2.25
2018-07-03T06:12:58.222Z,2.10
2018-07-03T06:15:27.257Z,2.15
2018-07-03T06:17:55.988Z,2.02
2018-07-03T06:20:24.891Z,2.43
2018-07-03T06:22:53.102Z,2.40
2018-07-03T06:25:21.234Z,2.23
2018-07-03T06:27:49.407Z,2.37
2018-07-03T06:30:17.629Z,2.27
2018-07-03T06:32:45.832Z,2.50
2018-07-03T06:35:14.036Z,2.67
2018-07-03T06:37:42.654Z,2.47
2018-07-03T06:40:11.028Z,2.57
2018-07-03T06:42:39.640Z,1.90
2018-07-03T06:45:08.384Z,2.00
2018-07-03T06:47:36.580Z,1.90
2018-07-03T06:50:05.224Z,2.43
2018-07-03T06:52:34.003Z,2.10
2018-07-03T06:55:02.917Z,1.87
2018-07-03T06:57:31.173Z,1.90
2018-07-03T06:59:59.426Z,2.30
2018-07-03T07:02:27.714Z,2.03
2018-07-03T07:04:55.865Z,2.17
2018-07-03T07:07:24.085Z,2.03
2018-07-03T07:09:52.234Z,2.00
2018-07-03T07:12:20.470Z,1.73
2018-07-03T07:14:48.584Z,2.10
2018-07-03T07:17:16.773Z,1.87
2018-07-03T07:19:44.944Z,1.70
2018-07-03T07:22:13.744Z,2.03
2018-07-03T07:24:41.902Z,1.67
2018-07-03T07:27:11.249Z,1.63
2018-07-03T07:29:39.498Z,1.70
2018-07-03T07:32:07.702Z,1.57
2018-07-03T07:34:36.824Z,1.70
2018-07-03T07:37:05.305Z,1.30
2018-07-03T07:39:33.958Z,1.17
2018-07-03T07:42:02.294Z,1.50
2018-07-03T07:44:30.666Z,1.83
2018-07-03T07:46:59.096Z,1.67
2018-07-03T07:49:27.280Z,1.17
2018-07-03T07:51:55.520Z,1.00
2018-07-03T07:54:23.715Z,1.50
2018-07-03T07:56:51.898Z,1.57
2018-07-03T07:59:20.051Z,1.10
2018-07-03T08:01:48.368Z,1.47
2018-07-03T08:04:16.586Z,1.40
2018-07-03T08:06:44.783Z,1.63
2018-07-03T08:09:13.147Z,1.30
2018-07-03T08:11:41.718Z,1.43
2018-07-03T08:14:10.180Z,1.70
2018-07-03T08:16:38.370Z,1.17
2018-07-03T08:19:06.579Z,0.80
2018-07-03T08:21:35.473Z,1.03
2018-07-03T08:24:03.647Z,0.80
2018-07-03T08:26:31.817Z,1.10
2018-07-03T08:28:59.991Z,1.10
2018-07-03T08:31:28.165Z,1.17
2018-07-03T08:33:56.440Z,1.00
2018-07-03T08:36:24.600Z,1.20
2018-07-03T08:38:52.784Z,1.00
2018-07-03T08:41:21.038Z,0.87
2018-07-03T08:43:49.903Z,1.00
2018-07-03T08:46:18.315Z,0.80
2018-07-03T08:48:46.486Z,0.80
2018-07-03T08:51:14.761Z,0.97
2018-07-03T08:53:43.131Z,1.00
2018-07-03T08:56:11.293Z,1.00
2018-07-03T08:58:39.469Z,0.93
2018-07-03T09:01:07.756Z,1.03
2018-07-03T09:03:35.946Z,1.07
2018-07-03T09:06:04.089Z,0.87
2018-07-03T09:11:26.998Z,1.00
2018-07-03T09:13:55.150Z,0.90
2018-07-03T09:16:23.543Z,0.80
2018-07-03T09:18:51.831Z,1.00
2018-07-03T09:21:20.098Z,0.90
2018-07-03T09:26:17.190Z,1.10
2018-07-03T09:28:45.356Z,0.80
2018-07-03T09:31:14.404Z,0.90
2018-07-03T09:53:22.428Z,0.90
2018-07-03T09:55:50.649Z,0.90
2018-07-03T09:58:18.783Z,1.10
2018-07-03T10:00:52.171Z,0.90
2018-07-03T10:03:20.955Z,0.80
2018-07-03T10:05:49.184Z,0.80
2018-07-03T10:08:17.300Z,1.10
2018-07-03T10:10:45.911Z,0.90
2018-07-03T10:13:14.555Z,1.00
2018-07-03T10:15:42.973Z,1.10
2018-07-03T10:18:11.796Z,0.73
2018-07-03T10:20:40.049Z,0.80
2018-07-03T10:23:08.380Z,0.90
2018-07-03T10:25:37.230Z,1.03
2018-07-03T10:28:05.577Z,0.70
2018-07-03T10:30:33.721Z,0.80
2018-07-03T10:33:01.910Z,0.70
2018-07-03T10:35:31.093Z,0.70
2018-07-03T10:37:59.252Z,0.93
2018-07-03T11:02:34.696Z,0.80
2018-07-03T11:05:02.892Z,0.97
2018-07-03T11:07:31.231Z,0.90
2018-07-03T11:09:59.520Z,0.87
2018-07-03T11:12:27.841Z,1.00
2018-07-03T11:14:57.532Z,1.00
2018-07-03T11:17:26.403Z,1.10
2018-07-03T11:19:54.847Z,1.00
2018-07-03T11:22:22.945Z,0.90
2018-07-03T11:24:51.350Z,0.97
2018-07-03T11:27:19.486Z,0.80
2018-07-03T11:29:47.639Z,0.70
2018-07-03T11:32:16.253Z,1.00
2018-07-03T11:34:45.013Z,1.17
2018-07-03T11:37:13.241Z,0.90
2018-07-03T11:39:41.523Z,0.80
2018-07-03T11:42:09.684Z,0.90
2018-07-03T11:44:37.961Z,1.00
2018-07-03T11:47:06.654Z,0.80
2018-07-03T11:49:34.918Z,0.70
2018-07-03T11:52:03.115Z,0.73
2018-07-03T11:54:32.062Z,0.73
2018-07-03T11:57:00.252Z,1.00
2018-07-03T11:59:28.445Z,1.00
2018-07-03T12:01:57.402Z,0.93
2018-07-03T12:04:26.534Z,0.90
2018-07-03T12:06:55.362Z,1.10
2018-07-03T12:09:23.774Z,0.80
2018-07-03T12:11:52.855Z,0.83
2018-07-03T12:14:21.030Z,1.00
2018-07-03T12:16:49.288Z,0.97
2018-07-03T12:19:17.969Z,0.83
2018-07-03T12:21:46.170Z,0.93
2018-07-03T12:24:14.431Z,0.97
2018-07-03T12:26:42.632Z,0.83
2018-07-03T12:29:10.929Z,0.77
2018-07-03T12:31:39.721Z,0.90
2018-07-03T12:34:07.959Z,0.80
2018-07-03T12:36:36.133Z,0.93
2018-07-03T12:39:06.460Z,1.10
2018-07-03T12:41:34.655Z,1.00
2018-07-03T12:44:03.483Z,0.97
2018-07-03T12:46:31.652Z,1.20
2018-07-03T12:48:59.803Z,0.80
2018-07-03T12:51:28.244Z,0.73
2018-07-03T12:53:56.958Z,0.90
2018-07-03T12:56:25.323Z,1.10
2018-07-03T12:58:54.304Z,0.93
2018-07-03T13:01:22.473Z,1.20
2018-07-03T13:03:50.630Z,0.70
2018-07-03T13:06:19.645Z,1.10
2018-07-03T13:08:47.965Z,0.90
2018-07-03T13:11:16.356Z,1.10
2018-07-03T13:13:44.508Z,0.97
2018-07-03T13:16:13.462Z,0.90
2018-07-03T13:18:41.780Z,1.20
2018-07-03T13:21:09.963Z,0.87
2018-07-03T13:23:38.072Z,1.13
2018-07-03T13:26:06.215Z,1.30
2018-07-03T13:28:34.596Z,1.00
2018-07-03T13:31:02.819Z,0.90
2018-07-03T13:33:31.115Z,0.90
2018-07-03T13:35:59.931Z,0.87
2018-07-03T13:38:28.102Z,0.90
2018-07-03T13:40:56.453Z,1.10
2018-07-03T13:43:24.994Z,0.80
2018-07-03T13:45:54.208Z,0.87
2018-07-03T13:48:22.556Z,1.20
2018-07-03T13:50:50.874Z,1.03
2018-07-03T13:53:19.086Z,0.67
2018-07-03T13:55:47.316Z,0.80
2018-07-03T13:58:15.611Z,0.90
2018-07-03T14:00:43.837Z,1.10
2018-07-03T14:03:12.440Z,1.13
2018-07-03T14:05:40.827Z,1.20
2018-07-03T14:08:09.093Z,1.17
2018-07-03T14:10:37.261Z,1.10
2018-07-03T14:13:05.526Z,1.37
2018-07-03T14:15:34.119Z,0.80
2018-07-03T14:18:02.312Z,1.03
2018-07-03T14:20:31.362Z,1.07
2018-07-03T14:22:59.547Z,0.80
2018-07-03T14:25:27.760Z,0.93
2018-07-03T14:27:55.996Z,1.00
2018-07-03T14:30:24.836Z,0.80
2018-07-03T14:32:53.002Z,0.90
2018-07-03T14:35:21.783Z,1.13
2018-07-03T14:37:49.995Z,1.03
2018-07-03T14:40:18.205Z,0.80
2018-07-03T14:42:47.289Z,0.90
2018-07-03T14:45:15.620Z,0.80
2018-07-03T14:47:44.635Z,0.80
2018-07-03T14:50:13.093Z,0.90
2018-07-03T14:52:41.364Z,0.77
2018-07-03T14:55:09.531Z,1.00
2018-07-03T14:57:37.882Z,1.07
2018-07-03T15:00:06.629Z,1.00
2018-07-03T15:02:35.715Z,0.80
2018-07-03T15:05:04.421Z,0.80
2018-07-03T15:07:32.578Z,1.27
2018-07-03T15:10:01.540Z,0.73
2018-07-03T15:12:30.341Z,1.00
2018-07-03T15:14:59.163Z,0.90
2018-07-03T15:17:28.638Z,0.80
2018-07-03T15:19:58.880Z,1.00
2018-07-03T15:22:27.756Z,0.97
2018-07-03T15:24:56.019Z,0.90
2018-07-03T15:27:24.705Z,0.90
2018-07-03T15:29:53.471Z,1.03
2018-07-03T15:32:22.256Z,1.37
2018-07-03T15:34:50.837Z,0.93
2018-07-03T15:37:19.678Z,0.80
2018-07-03T15:39:49.008Z,0.90
2018-07-03T15:42:17.463Z,1.07
2018-07-03T15:45:14.922Z,0.80
2018-07-03T15:47:43.978Z,1.10
2018-07-03T15:50:14.036Z,1.03
2018-07-03T15:52:42.260Z,0.87
2018-07-03T15:55:10.992Z,0.90
2018-07-03T15:57:39.148Z,0.70
2018-07-03T16:00:08.556Z,1.10
2018-07-03T16:02:36.715Z,1.10
2018-07-03T16:05:12.164Z,0.80
2018-07-03T16:08:45.541Z,0.83
2018-07-03T16:11:14.399Z,0.90
2018-07-03T16:13:42.621Z,1.10
2018-07-03T16:16:11.739Z,0.90
2018-07-03T16:18:40.113Z,1.57
2018-07-03T16:21:08.781Z,0.90
2018-07-03T16:23:36.948Z,0.90
2018-07-03T16:26:05.268Z,0.90
2018-07-03T16:28:33.510Z,0.90
2018-07-03T16:31:01.621Z,0.90
2018-07-03T16:33:29.883Z,0.90
2018-07-03T16:35:58.043Z,0.88
2018-07-03T16:38:26.942Z,0.90
2018-07-03T16:40:55.164Z,0.90
2018-07-03T16:43:23.365Z,0.80
2018-07-03T16:45:52.054Z,1.10
2018-07-03T16:48:20.241Z,1.00
2018-07-03T16:50:48.443Z,0.88
2018-07-03T16:53:17.245Z,1.02
2018-07-03T16:55:45.396Z,1.30
2018-07-03T16:58:13.546Z,1.00
2018-07-03T17:00:41.800Z,0.93
2018-07-03T17:03:10.157Z,0.78
2018-07-03T17:05:38.869Z,1.52
2018-07-03T17:08:09.343Z,1.25
2018-07-03T17:10:37.468Z,1.10
2018-07-03T17:13:05.805Z,0.90
2018-07-03T17:15:33.937Z,0.90
2018-07-03T17:18:03.409Z,1.07
2018-07-03T17:20:31.598Z,0.90
2018-07-03T17:22:59.850Z,0.95
2018-07-03T17:25:28.085Z,1.32
2018-07-03T17:27:56.331Z,0.98
2018-07-03T17:30:25.354Z,0.72
2018-07-03T17:32:53.511Z,1.10
2018-07-03T17:35:21.706Z,0.75
2018-07-03T17:37:49.946Z,0.70
2018-07-03T17:40:23.758Z,1.10
2018-07-03T17:44:00.116Z,1.40
2018-07-03T17:46:28.296Z,0.88
2018-07-03T17:48:56.509Z,1.10
2018-07-03T17:51:24.745Z,2.02
2018-07-03T17:53:53.006Z,0.90
2018-07-03T17:56:21.178Z,1.00
2018-07-03T17:58:50.496Z,0.95
2018-07-03T18:01:18.670Z,1.10
2018-07-03T18:03:48.029Z,1.13
2018-07-03T18:06:16.255Z,1.17
2018-07-03T18:08:44.560Z,0.90
2018-07-03T18:11:13.841Z,1.10
2018-07-03T18:13:42.002Z,0.88
2018-07-03T18:16:10.246Z,0.80
2018-07-03T18:18:38.596Z,1.00
2018-07-03T18:21:06.845Z,1.05
2018-07-03T18:23:35.015Z,0.95
2018-07-03T18:26:03.252Z,0.80
2018-07-03T18:28:31.363Z,0.88
2018-07-03T18:31:00.121Z,0.90
2018-07-03T18:33:28.318Z,1.05
2018-07-03T18:35:56.583Z,0.80
2018-07-03T18:38:24.848Z,1.12
2018-07-03T18:40:53.048Z,1.15
2018-07-03T18:43:21.285Z,0.90
2018-07-03T18:45:49.474Z,1.10
2018-07-03T18:48:17.599Z,1.20
2018-07-03T18:50:46.736Z,1.20
2018-07-03T18:53:14.925Z,0.80
2018-07-03T18:55:43.190Z,1.00
2018-07-03T18:58:11.381Z,1.20
2018-07-03T19:00:39.577Z,0.82
2018-07-03T19:03:07.879Z,1.00
2018-07-03T19:05:36.043Z,1.07
2018-07-03T19:08:04.338Z,1.00
2018-07-03T19:10:32.934Z,0.97
2018-07-03T19:13:01.105Z,0.87
2018-07-03T19:15:29.513Z,0.87
2018-07-03T19:17:58.186Z,1.10
2018-07-03T19:20:26.610Z,1.10
2018-07-03T19:22:54.844Z,1.03
2018-07-03T19:25:23.144Z,1.10
2018-07-03T19:27:51.303Z,0.90
2018-07-03T19:30:19.478Z,1.20
2018-07-03T19:32:48.610Z,0.90
2018-07-03T19:35:16.861Z,1.17
2018-07-03T19:37:45.061Z,1.33
2018-07-03T19:40:13.196Z,1.10
2018-07-03T19:42:47.056Z,1.10
2018-07-03T19:45:16.287Z,1.00
2018-07-03T19:47:44.479Z,1.40
2018-07-03T19:50:12.650Z,1.23
2018-07-03T19:52:40.871Z,1.80
2018-07-03T19:55:09.164Z,2.00
2018-07-03T19:57:37.477Z,1.60
2018-07-03T20:00:05.657Z,1.40
2018-07-03T20:02:34.563Z,1.70
2018-07-03T20:05:02.817Z,1.87
2018-07-03T20:07:31.141Z,2.53
2018-07-03T20:09:59.342Z,1.90
2018-07-03T20:12:27.527Z,2.10
2018-07-03T20:14:55.739Z,1.77
2018-07-03T20:17:24.509Z,1.70
2018-07-03T20:19:52.668Z,1.90
2018-07-03T20:22:20.854Z,1.97
2018-07-03T20:24:49.694Z,2.00
2018-07-03T20:27:17.829Z,2.10
2018-07-03T20:29:46.082Z,2.07
2018-07-03T20:32:14.777Z,2.03
2018-07-03T20:34:43.231Z,1.90
2018-07-03T20:37:12.348Z,2.30
2018-07-03T20:39:40.589Z,2.40
2018-07-03T20:42:08.728Z,2.60
2018-07-03T20:44:36.966Z,1.97
2018-07-03T20:47:05.155Z,2.50
2018-07-03T20:49:33.456Z,2.20
2018-07-03T20:52:01.884Z,2.60
2018-07-03T20:54:30.114Z,2.57
2018-07-03T20:56:58.322Z,2.20
2018-07-03T20:59:26.465Z,2.90
2018-07-03T21:01:54.685Z,2.47
2018-07-03T21:04:23.026Z,2.93
2018-07-03T21:06:51.156Z,3.00
2018-07-03T21:09:20.463Z,2.80
2018-07-03T21:11:48.792Z,2.70
2018-07-03T21:14:17.523Z,2.83
2018-07-03T21:16:46.243Z,2.63
2018-07-03T21:19:14.471Z,3.10
2018-07-03T21:21:42.640Z,3.27
2018-07-03T21:24:10.882Z,2.93
2018-07-03T21:26:39.025Z,3.50
2018-07-03T21:29:07.454Z,3.40
2018-07-03T21:31:35.775Z,2.90
2018-07-03T21:34:04.542Z,3.30
2018-07-03T21:36:32.725Z,3.10
2018-07-03T21:39:01.087Z,2.97
2018-07-03T21:41:29.145Z,3.60
2018-07-03T21:43:57.338Z,3.67
2018-07-03T21:46:25.605Z,3.43
2018-07-03T21:48:53.892Z,3.30
2018-07-03T21:51:22.059Z,3.40
2018-07-03T21:53:50.493Z,3.27
2018-07-03T21:56:18.734Z,3.90
2018-07-03T21:58:47.125Z,3.57
2018-07-03T22:01:15.267Z,3.43
2018-07-03T22:03:44.381Z,3.87
2018-07-03T22:06:13.269Z,3.43
2018-07-03T22:08:41.753Z,3.80
2018-07-03T22:11:09.942Z,3.20
2018-07-03T22:13:38.039Z,3.73
2018-07-03T22:16:06.419Z,3.80
2018-07-03T22:18:35.058Z,4.00
2018-07-03T22:21:03.196Z,3.50
2018-07-03T22:23:31.390Z,3.77
2018-07-03T22:25:59.623Z,3.90
2018-07-03T22:28:27.769Z,4.00
2018-07-03T22:30:55.933Z,3.93
2018-07-03T22:33:24.101Z,4.03
2018-07-03T22:35:52.254Z,4.47
2018-07-03T22:38:20.440Z,4.27
2018-07-03T22:40:48.573Z,3.80
2018-07-03T22:43:16.777Z,4.00
2018-07-03T22:45:44.923Z,3.63
2018-07-03T22:48:13.175Z,4.00
2018-07-03T22:50:41.305Z,4.30
2018-07-03T22:53:09.609Z,4.23
2018-07-03T22:55:37.754Z,4.03
2018-07-03T22:58:05.927Z,4.67
2018-07-03T23:00:34.052Z,4.00
2018-07-03T23:03:03.353Z,4.57
2018-07-03T23:05:31.659Z,3.83
2018-07-03T23:08:00.511Z,3.73
2018-07-03T23:10:28.946Z,3.97
2018-07-03T23:12:57.819Z,4.43
2018-07-03T23:15:26.033Z,4.20
2018-07-03T23:17:54.389Z,4.70
2018-07-03T23:20:22.552Z,4.67
2018-07-03T23:22:50.768Z,4.03
2018-07-03T23:25:19.056Z,4.07
2018-07-03T23:27:47.286Z,5.17
2018-07-03T23:30:15.466Z,4.40
2018-07-03T23:32:44.209Z,5.17
2018-07-03T23:35:12.392Z,4.23
2018-07-03T23:37:41.301Z,4.53
2018-07-03T23:40:09.460Z,4.60
2018-07-03T23:42:37.562Z,4.80
2018-07-03T23:45:06.644Z,5.10
2018-07-03T23:47:40.468Z,4.87
2018-07-03T23:50:14.799Z,4.77
2018-07-03T23:52:48.479Z,4.50
2018-07-03T23:55:22.084Z,4.83
2018-07-03T23:57:55.812Z,4.90
